Terminal Aerodrome Forecast
Issued by NWS

Home | Current Version | Previous Version | Text Only | Print | Product List | Glossary On
Versions: 1 2 3 4 5 6 7 8 9 10 11 12 13 14
795
FTUS46 KMTR 201720
TAFSTS
TAF
KSTS 201720Z 2018/2118 VRB03KT P6SM -SHRA BKN022 OVC040
      WS020/21025KT
      TEMPO 2018/2020 2SM -RA BR OVC020
     FM202000 15003KT 6SM -RA BR SCT012 BKN025 OVC040
     FM210000 VRB03KT P6SM FEW012 SCT100
     FM210500 11003KT 3/4SM BR VV002
     FM210700 11004KT 1/4SM FG VV001
     FM211400 00000KT 3SM BR OVC004
     FM211730 VRB03KT P6SM FEW020 BKN120=

USA.gov is the U.S. government's official web portal to all federal, state and local government web resources and services.